Time;durP1;ratioP1;P1;durP2;ratioP2;P2;SDS_P1;SDS_P2;PMS_P1;PMS_P2;Temp;Humidity;BMP_temperature;BMP_pressure;BME280_temperature;BME280_humidity;BME280_pressure;Samples;Min_cycle;Max_cycle;Signal;HPM_P1;HPM_P2
2023/04/15 00:01:57;;;;;;;;;5.50;5.50;;;;;10.14;84.02;98466.31;5023210;28;45456;-82
2023/04/15 00:04:22;;;;;;;;;4.00;3.50;;;;;10.16;83.99;98463.63;5013755;28;46537;-82
2023/04/15 00:06:52;;;;;;;;;5.25;5.25;;;;;10.17;83.36;98459.19;5031134;28;45377;-82
2023/04/15 00:09:18;;;;;;;;;7.00;7.00;;;;;10.17;83.46;98467.09;5014894;28;45491;-82
2023/04/15 00:11:45;;;;;;;;;8.25;8.25;;;;;10.18;83.63;98467.03;5026545;28;45382;-82
2023/04/15 00:14:11;;;;;;;;;6.00;6.00;;;;;10.17;83.33;98464.47;5017013;28;46538;-82
2023/04/15 00:16:36;;;;;;;;;4.00;4.00;;;;;10.16;83.14;98466.25;5014326;28;45401;-82
2023/04/15 00:19:02;;;;;;;;;5.75;5.75;;;;;10.18;83.43;98468.81;5017076;28;45444;-82
2023/04/15 00:21:27;;;;;;;;;8.25;6.25;;;;;10.18;83.24;98466.16;5010584;28;45451;-82
2023/04/15 00:23:53;;;;;;;;;6.25;6.25;;;;;10.18;83.73;98464.41;5019169;28;46636;-82
2023/04/15 00:26:19;;;;;;;;;6.50;6.00;;;;;10.18;84.00;98456.50;5016398;28;45500;-82
2023/04/15 00:28:45;;;;;;;;;5.00;5.00;;;;;10.18;83.49;98456.50;5016257;28;45468;-82
2023/04/15 00:31:10;;;;;;;;;6.00;5.00;;;;;10.18;83.03;98467.03;5031282;28;45523;-83
2023/04/15 00:33:36;;;;;;;;;5.50;5.50;;;;;10.19;83.14;98465.28;5031520;28;46662;-82
2023/04/15 00:36:02;;;;;;;;;6.00;5.50;;;;;10.19;83.81;98458.22;5011017;28;45804;-83
2023/04/15 00:38:28;;;;;;;;;11.00;7.00;;;;;10.16;83.84;98458.34;5007316;28;45341;-83
2023/04/15 00:40:55;;;;;;;;;7.00;6.00;;;;;10.16;83.67;98468.88;5004932;28;45318;-82
2023/04/15 00:43:20;;;;;;;;;5.00;5.00;;;;;10.16;83.80;98471.50;5032016;28;46165;-82
2023/04/15 00:45:46;;;;;;;;;5.75;5.00;;;;;10.13;83.63;98466.38;5012057;28;45397;-82
2023/04/15 00:48:12;;;;;;;;;7.25;5.00;;;;;10.14;84.25;98466.31;5015415;28;45495;-82
2023/04/15 00:50:37;;;;;;;;;7.00;6.25;;;;;10.14;84.37;98470.72;5014402;28;45515;-82
2023/04/15 00:53:03;;;;;;;;;7.50;5.00;;;;;10.14;84.56;98476.84;5030431;28;47309;-83
2023/04/15 00:55:28;;;;;;;;;5.50;5.50;;;;;10.13;84.41;98469.88;5014727;28;45444;-83
2023/04/15 00:57:55;;;;;;;;;6.25;6.00;;;;;10.14;84.75;98457.56;5014912;28;45555;-82
2023/04/15 01:00:21;;;;;;;;;5.50;5.00;;;;;10.15;84.73;98464.53;5011938;28;45468;-81
2023/04/15 01:02:47;;;;;;;;;5.00;5.00;;;;;10.18;84.46;98466.16;5012809;28;46299;-82
2023/04/15 01:05:13;;;;;;;;;7.00;5.00;;;;;10.19;84.48;98470.53;5014270;28;45885;-82
2023/04/15 01:07:38;;;;;;;;;6.50;6.50;;;;;10.20;84.76;98469.63;5015923;28;45550;-82
2023/04/15 01:10:04;;;;;;;;;5.00;4.75;;;;;10.19;84.56;98470.53;5007988;28;45406;-82
2023/04/15 01:12:31;;;;;;;;;7.00;7.00;;;;;10.19;84.86;98458.22;5015960;28;45413;-82
2023/04/15 01:14:58;;;;;;;;;7.25;5.25;;;;;10.18;85.20;98460.91;5016086;28;45503;-80
2023/04/15 01:17:24;;;;;;;;;6.00;2.75;;;;;10.17;85.17;98460.06;5016708;28;45413;-82
2023/04/15 01:19:50;;;;;;;;;5.50;5.50;;;;;10.18;85.16;98464.41;5028374;28;45453;-82
2023/04/15 01:22:16;;;;;;;;;7.00;4.25;;;;;10.18;84.43;98460.91;5031735;28;46266;-82
2023/04/15 01:24:51;;;;;;;;;5.50;4.75;;;;;10.17;84.27;98460.06;5014902;28;45928;-82
2023/04/15 01:27:16;;;;;;;;;4.25;4.25;;;;;10.18;84.72;98460.91;5015148;28;45403;-82
2023/04/15 01:29:41;;;;;;;;;5.50;4.75;;;;;10.14;83.89;98462.84;5015611;28;45326;-82
2023/04/15 01:32:07;;;;;;;;;5.75;5.25;;;;;10.12;84.31;98469.94;5015297;28;45996;-82
2023/04/15 01:34:33;;;;;;;;;5.00;5.00;;;;;10.12;84.15;98476.06;5013878;28;46015;-82
2023/04/15 01:36:58;;;;;;;;;4.25;4.25;;;;;10.08;83.39;98477.13;5007162;28;45514;-82
2023/04/15 01:39:24;;;;;;;;;5.50;5.50;;;;;10.00;83.72;98471.41;5013069;28;45467;-82
2023/04/15 01:41:49;;;;;;;;;7.00;5.00;;;;;9.94;83.57;98476.09;5015556;28;46493;-81
2023/04/15 01:44:15;;;;;;;;;5.50;5.50;;;;;9.91;83.84;98474.47;5015169;28;45453;-82
2023/04/15 01:46:40;;;;;;;;;6.00;6.00;;;;;9.90;84.38;98472.75;5015489;28;45452;-81
2023/04/15 01:49:06;;;;;;;;;8.75;8.00;;;;;9.93;84.46;98471.75;5015230;28;45487;-82
2023/04/15 01:51:31;;;;;;;;;5.00;4.25;;;;;9.95;84.86;98478.66;5014976;28;46127;-82
2023/04/15 01:53:57;;;;;;;;;9.50;8.50;;;;;9.93;84.98;98471.75;5015764;28;45495;-82
2023/04/15 01:56:23;;;;;;;;;5.25;5.25;;;;;9.91;85.05;98479.72;5029039;28;45358;-82
2023/04/15 01:58:48;;;;;;;;;6.25;6.00;;;;;9.87;85.04;98485.22;5017753;28;45384;-83
2023/04/15 02:01:15;;;;;;;;;7.25;7.00;;;;;9.87;85.36;98474.69;5012138;28;45455;-84
2023/04/15 02:03:41;;;;;;;;;8.50;6.25;;;;;9.84;84.76;98480.09;5014835;28;45397;-84
2023/04/15 02:06:07;;;;;;;;;9.00;7.25;;;;;9.80;85.35;98474.97;5013380;28;45424;-84
2023/04/15 02:08:32;;;;;;;;;6.25;6.00;;;;;9.83;85.18;98471.34;5013889;28;45497;-83
2023/04/15 02:10:57;;;;;;;;;5.50;5.50;;;;;9.84;85.24;98483.59;5029859;28;47375;-83
2023/04/15 02:13:23;;;;;;;;;6.25;6.25;;;;;9.83;85.67;98484.53;5015027;28;45483;-83
2023/04/15 02:15:49;;;;;;;;;5.25;4.75;;;;;9.83;85.56;98481.88;5028594;28;45577;-83
2023/04/15 02:18:15;;;;;;;;;5.75;5.50;;;;;9.81;85.87;98475.84;5015269;28;45579;-83
2023/04/15 02:20:43;;;;;;;;;6.25;6.00;;;;;9.81;85.79;98470.56;5013882;28;46636;-82
2023/04/15 02:23:10;;;;;;;;;7.00;7.00;;;;;9.83;85.74;98470.50;5014801;28;45420;-82
2023/04/15 02:25:36;;;;;;;;;6.50;5.75;;;;;9.84;86.00;98462.53;5009890;28;45574;-82
2023/04/15 02:28:01;;;;;;;;;6.25;5.75;;;;;9.85;85.43;98473.91;5009819;28;45419;-82
2023/04/15 02:30:26;;;;;;;;;6.75;5.25;;;;;9.84;85.21;98469.59;5015441;28;45847;-82
2023/04/15 02:32:52;;;;;;;;;5.50;4.50;;;;;9.84;85.10;98462.53;5028783;28;46080;-81
2023/04/15 02:35:18;;;;;;;;;5.50;5.00;;;;;9.86;85.13;98470.38;5011612;28;45591;-81
2023/04/15 02:37:44;;;;;;;;;4.50;4.00;;;;;9.87;85.60;98472.06;5030372;28;45346;-81
2023/04/15 02:40:11;;;;;;;;;10.00;6.00;;;;;9.90;86.40;98472.75;5012395;28;46087;-82
2023/04/15 02:42:40;;;;;;;;;6.00;5.75;;;;;9.92;86.69;98463.00;5010059;28;45639;-82
2023/04/15 02:45:06;;;;;;;;;10.00;8.75;;;;;9.94;86.45;98473.47;5002140;28;45522;-83
2023/04/15 02:47:33;;;;;;;;;4.25;4.00;;;;;9.96;85.64;98461.94;5007184;28;45470;-82
2023/04/15 02:50:00;;;;;;;;;8.25;6.75;;;;;9.96;85.94;98475.09;5009698;28;46329;-83
2023/04/15 02:52:26;;;;;;;;;6.00;5.75;;;;;9.96;86.19;98469.84;5026195;28;45487;-83
2023/04/15 02:54:53;;;;;;;;;3.25;2.00;;;;;9.94;85.66;98468.19;5007114;28;45258;-82
2023/04/15 02:57:18;;;;;;;;;3.75;2.00;;;;;9.92;85.72;98468.28;5013115;28;45604;-83
2023/04/15 02:59:44;;;;;;;;;2.00;1.00;;;;;9.91;85.71;98468.34;5013476;28;46040;-83
2023/04/15 03:02:10;;;;;;;;;4.00;3.00;;;;;9.92;85.54;98464.78;4999720;28;45390;-82
2023/04/15 03:04:35;;;;;;;;;2.50;2.00;;;;;9.89;85.41;98462.28;5013701;28;45539;-82
2023/04/15 03:07:00;;;;;;;;;5.50;2.75;;;;;9.89;86.19;98465.78;5013549;28;45617;-81
2023/04/15 03:09:26;;;;;;;;;3.00;2.25;;;;;9.92;86.23;98467.41;5022259;28;45500;-81
2023/04/15 03:11:53;;;;;;;;;2.00;1.50;;;;;9.93;86.08;98467.34;5020399;28;45465;-81
2023/04/15 03:14:19;;;;;;;;;2.00;2.00;;;;;9.89;85.88;98468.41;5014784;28;45417;-81
2023/04/15 03:16:44;;;;;;;;;1.75;1.75;;;;;9.83;85.82;98474.00;5014797;28;45537;-81
2023/04/15 03:19:09;;;;;;;;;3.50;3.00;;;;;9.78;85.89;98476.81;5029761;28;45578;-82
2023/04/15 03:21:35;;;;;;;;;2.00;2.00;;;;;9.74;86.33;98470.00;5015719;28;46206;-81
2023/04/15 03:24:00;;;;;;;;;3.50;3.50;;;;;9.72;86.85;98473.63;5026321;28;45375;-81
2023/04/15 03:26:30;;;;;;;;;2.00;2.00;;;;;9.70;87.06;98463.19;5000895;28;45622;-81
2023/04/15 03:28:56;;;;;;;;;3.00;2.00;;;;;9.73;86.96;98463.03;5026033;28;46214;-82
2023/04/15 03:31:22;;;;;;;;;2.00;2.00;;;;;9.70;86.28;98462.34;5012509;28;45392;-81
2023/04/15 03:33:47;;;;;;;;;1.50;1.50;;;;;9.66;86.39;98469.53;5004392;28;45325;-81
2023/04/15 03:36:13;;;;;;;;;0.00;0.00;;;;;9.61;86.86;98473.28;5030605;28;45516;-82
2023/04/15 03:38:38;;;;;;;;;1.25;1.25;;;;;9.58;86.98;98469.00;5017854;28;47323;-81
2023/04/15 03:41:04;;;;;;;;;2.00;2.00;;;;;9.57;86.96;98476.97;5033336;28;45317;-81
2023/04/15 03:43:29;;;;;;;;;4.00;4.00;;;;;9.56;87.98;98475.25;5032693;28;45439;-81
2023/04/15 03:45:55;;;;;;;;;6.00;4.50;;;;;9.56;88.15;98470.84;5032618;28;45621;-81
2023/04/15 03:48:20;;;;;;;;;5.50;4.25;;;;;9.55;87.68;98466.50;5016440;28;47016;-81
2023/04/15 03:50:46;;;;;;;;;4.00;4.00;;;;;9.55;87.12;98461.25;5011896;28;45325;-81
2023/04/15 03:53:11;;;;;;;;;4.00;4.00;;;;;9.59;87.24;98465.44;5017721;28;45400;-81
2023/04/15 03:55:36;;;;;;;;;4.00;3.75;;;;;9.62;87.21;98467.09;5024275;28;45448;-82
2023/04/15 03:58:02;;;;;;;;;4.75;3.00;;;;;9.67;87.66;98473.00;5032290;28;47829;-80
2023/04/15 04:00:27;;;;;;;;;4.00;4.00;;;;;9.68;86.90;98472.09;5016606;28;45376;-82
2023/04/15 04:02:53;;;;;;;;;3.25;2.75;;;;;9.69;87.19;98477.28;5017667;28;45528;-82
2023/04/15 04:05:18;;;;;;;;;5.50;5.00;;;;;9.71;87.70;98471.94;5014876;28;45309;-81
2023/04/15 04:07:44;;;;;;;;;8.25;4.00;;;;;9.75;87.95;98474.34;5011377;28;46611;-82
2023/04/15 04:10:10;;;;;;;;;3.00;3.00;;;;;9.80;87.77;98474.13;5005838;28;45418;-82
2023/04/15 04:12:35;;;;;;;;;3.00;2.00;;;;;9.84;86.91;98477.47;5017465;28;45533;-81
2023/04/15 04:15:01;;;;;;;;;4.00;2.25;;;;;9.86;86.95;98481.75;5018566;28;45454;-82
2023/04/15 04:17:26;;;;;;;;;2.25;2.25;;;;;9.88;86.93;98487.81;5000153;28;46533;-81
2023/04/15 04:19:51;;;;;;;;;2.00;2.00;;;;;9.92;86.88;98484.06;5009723;28;45357;-81
2023/04/15 04:22:20;;;;;;;;;3.00;2.50;;;;;9.94;87.12;98491.91;5017375;28;45324;-81
2023/04/15 04:24:46;;;;;;;;;6.75;4.50;;;;;9.95;86.86;98489.19;5032654;28;46316;-81
2023/04/15 04:27:11;;;;;;;;;4.00;4.00;;;;;9.95;87.07;98485.72;5017244;28;46063;-82
2023/04/15 04:29:37;;;;;;;;;3.00;3.00;;;;;9.96;87.40;98485.63;5016146;28;45532;-82
2023/04/15 04:32:02;;;;;;;;;3.50;3.00;;;;;9.95;87.25;98480.44;5017114;28;45445;-82
2023/04/15 04:34:27;;;;;;;;;7.00;3.25;;;;;9.95;87.32;98485.72;5016799;28;45548;-82
2023/04/15 04:36:53;;;;;;;;;4.00;4.00;;;;;9.92;87.13;98484.06;5013781;28;45405;-82
2023/04/15 04:39:18;;;;;;;;;4.25;4.00;;;;;9.90;87.00;98485.06;5011108;28;45438;-82
2023/04/15 04:41:43;;;;;;;;;3.50;3.50;;;;;9.88;87.45;98490.44;5005129;28;45413;-82
2023/04/15 04:44:09;;;;;;;;;4.00;3.00;;;;;9.89;86.92;98489.47;5015768;28;45467;-82
2023/04/15 04:46:34;;;;;;;;;5.00;3.00;;;;;9.86;87.10;98488.78;5013942;28;46525;-82
2023/04/15 04:49:00;;;;;;;;;3.25;3.25;;;;;9.81;87.19;98489.00;5009328;28;45456;-82
2023/04/15 04:51:25;;;;;;;;;6.00;3.00;;;;;9.78;87.41;98489.13;5014916;28;45479;-81
2023/04/15 04:53:50;;;;;;;;;2.50;2.50;;;;;9.80;87.62;98495.19;5014504;28;45558;-82
2023/04/15 04:56:16;;;;;;;;;4.00;4.00;;;;;9.75;88.24;98492.75;5005603;28;46447;-82
2023/04/15 04:58:41;;;;;;;;;3.50;3.00;;;;;9.67;87.94;98497.53;5017053;28;45506;-82
2023/04/15 05:01:07;;;;;;;;;6.75;5.50;;;;;9.59;88.62;98490.91;5011064;28;45398;-82
2023/04/15 05:03:33;;;;;;;;;4.00;4.00;;;;;9.53;88.68;98502.59;5012036;28;45385;-82
2023/04/15 05:05:58;;;;;;;;;3.50;3.00;;;;;9.48;88.50;98501.94;5026016;28;46255;-82
2023/04/15 05:08:23;;;;;;;;;5.50;4.25;;;;;9.42;88.45;98492.53;5009713;28;45317;-82
2023/04/15 05:10:49;;;;;;;;;5.00;4.00;;;;;9.41;89.23;98492.59;5013466;28;45987;-82
2023/04/15 05:13:14;;;;;;;;;4.00;3.00;;;;;9.42;88.97;98496.94;5027702;28;45493;-81
2023/04/15 05:15:42;;;;;;;;;4.75;4.75;;;;;9.44;88.60;98506.47;5012066;28;46284;-81
2023/04/15 05:18:07;;;;;;;;;4.00;4.00;;;;;9.44;88.76;98501.22;5029702;28;45445;-81
2023/04/15 05:20:32;;;;;;;;;4.00;4.00;;;;;9.46;88.68;98509.06;5015275;28;45356;-81
2023/04/15 05:22:58;;;;;;;;;9.00;5.00;;;;;9.44;89.37;98509.13;5016377;28;45439;-82
2023/04/15 05:25:23;;;;;;;;;9.25;7.50;;;;;9.40;89.42;98509.31;5009767;28;46120;-82
2023/04/15 05:27:49;;;;;;;;;8.50;8.50;;;;;9.37;89.07;98505.06;5006599;28;45471;-82
2023/04/15 05:30:14;;;;;;;;;10.00;9.25;;;;;9.39;89.26;98505.81;5011650;28;45550;-82
2023/04/15 05:32:40;;;;;;;;;7.25;6.00;;;;;9.40;89.27;98509.31;5013206;28;45563;-82
2023/04/15 05:35:06;;;;;;;;;7.75;7.50;;;;;9.41;89.68;98505.75;5022692;28;45626;-82
2023/04/15 05:37:32;;;;;;;;;7.50;7.25;;;;;9.40;89.60;98504.91;5011498;28;45448;-81
2023/04/15 05:39:57;;;;;;;;;9.00;9.00;;;;;9.42;89.99;98504.84;5026899;28;45270;-82
2023/04/15 05:42:23;;;;;;;;;11.00;9.75;;;;;9.46;89.80;98506.41;5012643;28;45452;-64
2023/04/15 05:44:48;;;;;;;;;10.50;9.00;;;;;9.51;90.10;98511.47;5000151;28;47224;-64
2023/04/15 05:47:13;;;;;;;;;9.75;7.25;;;;;9.55;89.63;98516.50;5017522;28;45334;-64
2023/04/15 05:49:39;;;;;;;;;6.75;6.75;;;;;9.57;90.13;98519.94;5001098;28;45919;-62
2023/04/15 05:52:04;;;;;;;;;9.50;6.75;;;;;9.60;90.18;98518.94;5013717;28;45298;-62
2023/04/15 05:54:30;;;;;;;;;9.00;9.00;;;;;9.62;89.94;98512.69;5013461;28;45591;-63
2023/04/15 05:56:56;;;;;;;;;7.00;7.00;;;;;9.64;89.63;98512.63;5012993;28;45416;-62
2023/04/15 05:59:21;;;;;;;;;8.25;8.25;;;;;9.64;89.86;98516.09;5013564;28;45496;-64
2023/04/15 06:01:47;;;;;;;;;6.00;6.00;;;;;9.58;89.61;98505.84;5004171;28;45624;-62
2023/04/15 06:04:12;;;;;;;;;8.50;8.50;;;;;9.60;89.84;98506.63;5013255;28;46181;-62
2023/04/15 06:06:38;;;;;;;;;7.00;5.00;;;;;9.67;90.05;98515.97;5004648;28;45479;-62
2023/04/15 06:09:04;;;;;;;;;6.00;6.00;;;;;9.73;89.76;98515.66;5014006;28;45448;-62
2023/04/15 06:11:29;;;;;;;;;7.00;7.00;;;;;9.76;89.82;98504.16;5005156;28;45595;-62
2023/04/15 06:13:55;;;;;;;;;6.00;6.00;;;;;9.80;90.26;98503.09;5011233;28;45956;-62
2023/04/15 06:16:21;;;;;;;;;9.00;6.00;;;;;9.85;90.63;98505.50;5008567;28;45450;-63
2023/04/15 06:18:47;;;;;;;;;5.25;4.75;;;;;9.92;90.21;98507.75;5019727;28;45373;-63
2023/04/15 06:21:12;;;;;;;;;4.00;4.00;;;;;9.99;89.51;98503.94;5012522;28;45322;-62
2023/04/15 06:23:40;;;;;;;;;3.50;3.50;;;;;10.02;89.65;98503.78;5020114;28;47163;-63
2023/04/15 06:26:05;;;;;;;;;4.00;4.00;;;;;10.07;89.28;98500.91;5012490;28;45506;-62
2023/04/15 06:28:31;;;;;;;;;4.00;4.00;;;;;10.12;88.92;98506.81;5010477;28;45526;-63
2023/04/15 06:30:56;;;;;;;;;5.00;5.00;;;;;10.17;88.99;98512.72;5006914;28;45622;-63
2023/04/15 06:33:22;;;;;;;;;3.50;3.50;;;;;10.19;88.46;98508.28;5004353;28;46446;-63
2023/04/15 06:35:48;;;;;;;;;4.00;3.25;;;;;10.24;87.80;98506.25;5012757;28;45532;-63
2023/04/15 06:38:13;;;;;;;;;3.75;3.00;;;;;10.27;88.00;98511.38;5013496;28;45431;-63
2023/04/15 06:40:39;;;;;;;;;4.00;4.00;;;;;10.30;86.79;98510.38;5012893;28;46302;-63
2023/04/15 06:43:05;;;;;;;;;3.50;3.00;;;;;10.29;87.28;98520.06;5013302;28;46417;-63
2023/04/15 06:45:31;;;;;;;;;2.75;2.75;;;;;10.30;86.55;98516.50;5007747;28;45458;-63
2023/04/15 06:47:56;;;;;;;;;5.25;5.25;;;;;10.31;86.52;98520.84;5013266;28;45436;-63
2023/04/15 06:50:22;;;;;;;;;4.50;4.50;;;;;10.27;86.00;98528.97;5008432;28;45569;-64
2023/04/15 06:52:47;;;;;;;;;2.00;2.00;;;;;10.22;85.83;98523.91;5005562;28;46324;-63
2023/04/15 06:55:13;;;;;;;;;4.25;4.25;;;;;10.17;86.24;98533.81;5010274;28;45457;-63
2023/04/15 06:57:39;;;;;;;;;4.50;4.50;;;;;10.11;86.13;98539.34;5005609;28;45467;-63
2023/04/15 07:00:06;;;;;;;;;6.75;6.00;;;;;10.03;86.49;98534.47;5009689;28;45412;-63
2023/04/15 07:02:31;;;;;;;;;4.00;4.00;;;;;9.97;85.78;98534.75;5004305;28;46561;-63
2023/04/15 07:04:57;;;;;;;;;2.25;2.25;;;;;9.94;86.62;98540.16;5011159;28;45440;-63
2023/04/15 07:07:22;;;;;;;;;4.00;4.00;;;;;9.91;87.06;98545.56;5009119;28;45465;-63
2023/04/15 07:09:47;;;;;;;;;3.00;2.00;;;;;9.80;86.94;98558.38;5008848;28;45483;-63
2023/04/15 07:12:13;;;;;;;;;4.50;3.00;;;;;9.68;87.31;98551.03;5014874;28;47980;-63
2023/04/15 07:14:38;;;;;;;;;3.00;3.00;;;;;9.62;87.82;98557.44;5015917;28;45820;-63
2023/04/15 07:17:04;;;;;;;;;5.75;3.75;;;;;9.62;87.64;98543.41;5011697;28;45427;-64
2023/04/15 07:19:29;;;;;;;;;4.25;4.00;;;;;9.65;88.27;98538.00;5015644;28;45444;-64
2023/04/15 07:21:54;;;;;;;;;3.75;3.00;;;;;9.70;88.24;98542.16;5031237;28;47902;-64
2023/04/15 07:24:22;;;;;;;;;3.75;3.75;;;;;9.75;88.32;98540.13;5016328;28;45384;-63
2023/04/15 07:26:47;;;;;;;;;6.50;4.50;;;;;9.82;89.21;98522.28;5015529;28;45488;-64
2023/04/15 07:29:13;;;;;;;;;5.25;4.50;;;;;9.90;89.45;98525.41;5014229;28;45644;-63
2023/04/15 07:31:39;;;;;;;;;5.25;4.00;;;;;10.03;89.43;98510.75;5009372;28;45514;-63
2023/04/15 07:34:06;;;;;;;;;4.75;4.75;;;;;10.18;89.15;98497.78;5015014;28;45317;-63
2023/04/15 07:36:31;;;;;;;;;5.00;5.00;;;;;10.31;88.24;98496.28;5011127;28;45388;-63
2023/04/15 07:38:57;;;;;;;;;5.75;5.75;;;;;10.48;88.64;98496.31;5015581;28;45472;-63
2023/04/15 07:41:22;;;;;;;;;3.50;3.50;;;;;10.61;87.56;98497.41;5012059;28;46097;-62
2023/04/15 07:43:48;;;;;;;;;6.50;4.50;;;;;10.71;87.00;98510.97;5015336;28;45807;-62
2023/04/15 07:46:14;;;;;;;;;6.00;5.50;;;;;10.75;86.21;98530.97;5010995;28;45481;-62
2023/04/15 07:48:39;;;;;;;;;2.25;2.00;;;;;10.61;87.56;98589.66;5006946;28;45456;-63
2023/04/15 07:51:05;;;;;;;;;2.25;2.00;;;;;10.33;87.72;98587.50;5007623;28;47605;-63
2023/04/15 07:53:32;;;;;;;;;0.00;0.00;;;;;9.93;78.47;98556.00;5010081;28;45516;-62
2023/04/15 07:55:57;;;;;;;;;0.00;0.00;;;;;9.60;78.95;98566.31;5010612;28;45540;-60
2023/04/15 07:58:23;;;;;;;;;0.00;0.00;;;;;9.35;80.80;98569.19;5012266;28;45392;-60
2023/04/15 08:00:49;;;;;;;;;0.00;0.00;;;;;9.21;80.20;98593.47;5022940;28;46712;-60
2023/04/15 08:03:15;;;;;;;;;0.00;0.00;;;;;9.12;76.73;98574.59;5008368;28;45436;-60
2023/04/15 08:05:40;;;;;;;;;0.00;0.00;;;;;9.05;79.12;98577.47;5014134;28;45372;-60
2023/04/15 08:08:06;;;;;;;;;0.00;0.00;;;;;9.01;77.36;98614.50;5014312;28;45400;-60
2023/04/15 08:10:31;;;;;;;;;0.00;0.00;;;;;8.96;79.60;98601.53;5015194;28;47350;-60
2023/04/15 08:12:57;;;;;;;;;1.50;0.75;;;;;8.95;80.49;98593.69;5015014;28;45567;-61
2023/04/15 08:15:22;;;;;;;;;0.00;0.00;;;;;8.95;79.92;98597.19;5015376;28;45552;-61
2023/04/15 08:17:48;;;;;;;;;0.00;0.00;;;;;8.99;77.33;98619.81;5015669;28;45567;-61
2023/04/15 08:20:13;;;;;;;;;1.00;0.00;;;;;9.04;81.72;98598.59;5014095;28;46227;-61
2023/04/15 08:22:39;;;;;;;;;0.00;0.00;;;;;9.09;78.28;98586.94;5013738;28;45477;-61
2023/04/15 08:25:05;;;;;;;;;0.00;0.00;;;;;9.14;80.98;98599.91;5010966;28;45478;-61
2023/04/15 08:27:31;;;;;;;;;0.00;0.00;;;;;9.16;77.65;98582.28;5014342;28;45411;-61
2023/04/15 08:29:56;;;;;;;;;2.00;0.00;;;;;9.20;79.96;98593.53;5014212;28;45661;-61
2023/04/15 08:32:21;;;;;;;;;0.00;0.00;;;;;9.23;78.98;98596.00;5012990;28;45418;-61
2023/04/15 08:34:47;;;;;;;;;0.00;0.00;;;;;9.29;79.66;98601.00;5014318;28;45799;-61
2023/04/15 08:37:13;;;;;;;;;0.00;0.00;;;;;9.31;79.50;98600.03;5011262;28;45465;-62
2023/04/15 08:39:38;;;;;;;;;0.00;0.00;;;;;9.40;74.84;98628.56;5014916;28;45697;-61
2023/04/15 08:42:10;;;;;;;;;0.00;0.00;;;;;9.47;78.52;98576.53;5012955;28;45456;-61
2023/04/15 08:44:37;;;;;;;;;0.00;0.00;;;;;9.58;73.98;98618.16;5015156;28;45354;-62
2023/04/15 08:47:05;;;;;;;;;0.00;0.00;;;;;9.71;77.37;98603.53;5014360;28;45502;-62
2023/04/15 08:49:31;;;;;;;;;0.00;0.00;;;;;9.88;75.36;98602.78;5011525;28;45366;-61
2023/04/15 08:51:58;;;;;;;;;0.00;0.00;;;;;10.03;69.88;98620.50;5008086;28;45384;-60
2023/04/15 08:54:24;;;;;;;;;0.00;0.00;;;;;10.13;72.45;98629.69;5012751;28;45452;-62
2023/04/15 08:56:51;;;;;;;;;0.00;0.00;;;;;10.16;71.92;98613.75;5010270;28;45795;-62
2023/04/15 08:59:17;;;;;;;;;0.00;0.00;;;;;10.21;69.78;98642.56;5014321;28;45462;-62
2023/04/15 09:01:42;;;;;;;;;0.00;0.00;;;;;10.24;70.42;98631.84;5007967;28;45523;-62
2023/04/15 09:04:09;;;;;;;;;0.00;0.00;;;;;10.17;68.57;98615.47;5015055;28;45381;-62
2023/04/15 09:06:34;;;;;;;;;0.00;0.00;;;;;10.17;69.56;98649.69;5013578;28;45381;-62
2023/04/15 09:08:59;;;;;;;;;1.50;0.25;;;;;10.25;70.42;98620.38;5013588;28;46157;-62
2023/04/15 09:11:25;;;;;;;;;0.00;0.00;;;;;10.35;70.74;98617.25;5013629;28;45438;-62
2023/04/15 09:13:51;;;;;;;;;0.50;0.00;;;;;10.43;69.24;98623.00;5013756;28;45461;-62
2023/04/15 09:16:17;;;;;;;;;0.00;0.00;;;;;10.53;71.37;98641.91;5014775;28;45412;-63
2023/04/15 09:18:43;;;;;;;;;1.00;1.00;;;;;10.60;69.01;98638.03;5014411;28;46205;-62
2023/04/15 09:21:10;;;;;;;;;0.75;0.00;;;;;10.70;74.07;98618.22;5030086;28;45508;-62
2023/04/15 09:23:37;;;;;;;;;1.25;0.00;;;;;10.85;74.54;98640.34;5014608;28;45452;-62
2023/04/15 09:26:04;;;;;;;;;0.00;0.00;;;;;10.99;72.71;98640.50;5029939;28;45418;-62
2023/04/15 09:28:30;;;;;;;;;0.00;0.00;;;;;11.02;71.89;98634.22;5014896;28;45493;-62
2023/04/15 09:31:00;;;;;;;;;0.00;0.00;;;;;11.02;67.59;98652.69;5014390;28;45612;-62
2023/04/15 09:33:27;;;;;;;;;0.00;0.00;;;;;11.08;62.55;98639.19;5014047;28;45466;-62
2023/04/15 09:36:03;;;;;;;;;0.00;0.00;;;;;11.12;67.17;98632.84;5014863;28;45374;-63
2023/04/15 09:38:29;;;;;;;;;0.00;0.00;;;;;11.24;69.47;98649.81;5014410;28;46582;-63
2023/04/15 09:40:56;;;;;;;;;0.00;0.00;;;;;11.26;68.82;98643.53;5014810;28;45511;-63
2023/04/15 09:43:22;;;;;;;;;0.00;0.00;;;;;11.28;64.52;98677.78;5014621;28;45280;-63
2023/04/15 09:45:52;;;;;;;;;0.00;0.00;;;;;11.35;64.20;98664.22;5014747;28;45343;-63
2023/04/15 09:48:27;;;;;;;;;0.00;0.00;;;;;11.38;66.80;98684.31;5001362;28;45440;-63
2023/04/15 09:50:57;;;;;;;;;0.00;0.00;;;;;11.31;66.54;98735.69;5014673;28;45565;-63
2023/04/15 09:53:24;;;;;;;;;0.00;0.00;;;;;11.14;66.68;98732.09;5014073;28;45281;-62
2023/04/15 09:55:57;;;;;;;;;0.00;0.00;;;;;10.83;68.37;98761.72;5014241;28;45568;-64
2023/04/15 09:58:28;;;;;;;;;0.00;0.00;;;;;10.32;72.23;98799.19;5013780;28;45721;-63
2023/04/15 10:00:55;;;;;;;;;0.00;0.00;;;;;9.72;76.12;98778.94;5014504;28;45310;-62
2023/04/15 10:03:23;;;;;;;;;1.00;0.00;;;;;9.16;78.21;98784.78;5014078;28;45457;-62
2023/04/15 10:05:51;;;;;;;;;0.00;0.00;;;;;8.67;77.37;98768.28;5014746;28;45501;-62
2023/04/15 10:08:20;;;;;;;;;0.00;0.00;;;;;8.44;77.46;98754.28;5014507;28;46415;-61
2023/04/15 10:10:47;;;;;;;;;0.00;0.00;;;;;8.23;80.08;98748.88;5014033;28;45379;-61
2023/04/15 10:13:17;;;;;;;;;0.00;0.00;;;;;8.14;81.39;98753.63;5014426;28;45523;-61
2023/04/15 10:15:48;;;;;;;;;0.00;0.00;;;;;8.10;79.25;98752.88;5012799;28;45424;-61
2023/04/15 10:18:18;;;;;;;;;0.00;0.00;;;;;8.16;78.88;98754.44;5013874;28;45530;-61
2023/04/15 10:20:45;;;;;;;;;0.00;0.00;;;;;8.19;79.79;98759.56;5014700;28;45362;-61
2023/04/15 10:23:11;;;;;;;;;0.00;0.00;;;;;8.26;79.97;98745.28;5014306;28;45457;-61
2023/04/15 10:25:37;;;;;;;;;0.00;0.00;;;;;8.34;81.89;98738.88;5014176;28;45380;-61
2023/04/15 10:28:05;;;;;;;;;0.00;0.00;;;;;8.50;75.24;98747.06;5014328;28;45404;-61
2023/04/15 10:30:32;;;;;;;;;0.00;0.00;;;;;8.55;77.13;98742.47;5014483;28;45448;-61
2023/04/15 10:32:58;;;;;;;;;0.00;0.00;;;;;8.64;80.37;98736.88;5013609;28;45461;-61
2023/04/15 10:35:24;;;;;;;;;0.00;0.00;;;;;8.72;78.98;98739.19;5014073;28;45425;-62
2023/04/15 10:37:49;;;;;;;;;0.00;0.00;;;;;8.78;76.91;98756.50;5013787;28;45468;-62
2023/04/15 10:40:26;;;;;;;;;1.00;0.00;;;;;8.84;82.45;98741.34;5013260;28;45398;-62
2023/04/15 10:42:55;;;;;;;;;0.00;0.00;;;;;9.01;79.85;98745.94;5012973;28;45419;-62
2023/04/15 10:45:21;;;;;;;;;0.00;0.00;;;;;9.14;81.98;98738.41;5013572;28;45435;-64
2023/04/15 10:47:52;;;;;;;;;0.00;0.00;;;;;9.29;80.18;98735.16;5011825;28;45415;-61
2023/04/15 10:50:18;;;;;;;;;0.00;0.00;;;;;9.39;78.93;98739.97;5009429;28;45427;-61
2023/04/15 10:52:43;;;;;;;;;0.25;0.00;;;;;9.47;77.80;98739.66;5011205;28;45563;-61
2023/04/15 10:55:11;;;;;;;;;0.50;0.50;;;;;9.53;82.67;98742.03;5012576;28;45625;-61
2023/04/15 10:57:40;;;;;;;;;0.50;0.50;;;;;9.67;81.68;98726.53;5013098;28;45476;-61
2023/04/15 11:00:11;;;;;;;;;2.20;1.00;;;;;9.86;84.31;98738.91;5013098;28;45376;-60
2023/04/15 11:02:41;;;;;;;;;0.75;0.25;;;;;10.05;84.09;98737.19;5012942;28;45582;-61
2023/04/15 11:05:07;;;;;;;;;1.00;1.00;;;;;10.27;84.96;98734.47;5012261;28;45421;-61
2023/04/15 11:07:39;;;;;;;;;0.00;0.00;;;;;10.46;84.77;98737.97;5013156;28;46624;-61
2023/04/15 11:10:17;;;;;;;;;1.00;0.00;;;;;10.64;82.53;98731.84;5013389;28;45412;-61
2023/04/15 11:12:49;;;;;;;;;1.00;1.00;;;;;10.89;83.53;98734.22;5013049;28;45408;-61
2023/04/15 11:15:39;;;;;;;;;6.00;5.50;;;;;11.18;82.82;98720.47;5026512;28;45653;-61
2023/04/15 11:18:15;;;;;;;;;2.00;2.00;;;;;11.40;82.14;98728.16;5004706;28;45592;-61
2023/04/15 11:20:44;;;;;;;;;1.00;1.00;;;;;11.57;81.20;98731.72;5012973;28;45591;-61
2023/04/15 11:23:09;;;;;;;;;0.40;0.40;;;;;11.61;81.04;98728.88;5013072;28;45389;-61
2023/04/15 11:25:38;;;;;;;;;0.00;0.00;;;;;11.67;79.69;98727.72;5013091;28;45448;-60
2023/04/15 11:28:04;;;;;;;;;0.00;0.00;;;;;11.70;78.89;98725.78;5012595;28;45563;-60
2023/04/15 11:30:32;;;;;;;;;0.00;0.00;;;;;11.70;79.27;98717.84;5012890;28;45528;-59
2023/04/15 11:32:59;;;;;;;;;0.00;0.00;;;;;11.72;78.14;98723.06;5010139;28;45444;-59
2023/04/15 11:35:25;;;;;;;;;0.75;0.75;;;;;11.67;77.66;98722.44;5006606;28;45549;-59